Time;durP1;ratioP1;P1;durP2;ratioP2;P2;SDS_P1;SDS_P2;PMS_P1;PMS_P2;Temp;Humidity;BMP_temperature;BMP_pressure;BME280_temperature;BME280_humidity;BME280_pressure;Samples;Min_cycle;Max_cycle;Signal;HPM_P1;HPM_P2
2021/04/01 00:00:13;;;;;;;47.83;26.30;;;;;;;16.27;41.15;101881.28;4913458;28;123806;-72
2021/04/01 00:02:49;;;;;;;49.80;28.75;;;;;;;16.24;41.17;101887.66;4895488;28;122085;-71
2021/04/01 00:05:16;;;;;;;53.22;30.05;;;;;;;16.19;41.07;101887.03;4911784;28;114893;-71
2021/04/01 00:07:43;;;;;;;52.15;28.95;;;;;;;16.13;41.15;101877.50;4913141;28;114942;-72
2021/04/01 00:10:20;;;;;;;53.20;29.50;;;;;;;16.09;41.21;101878.63;4912681;28;124489;-72
2021/04/01 00:12:47;;;;;;;52.22;28.75;;;;;;;16.07;41.46;101880.50;4901650;28;124375;-71
2021/04/01 00:15:15;;;;;;;49.97;28.23;;;;;;;16.06;41.67;101873.44;4912234;28;114122;-71
2021/04/01 00:17:45;;;;;;;52.13;29.13;;;;;;;16.05;41.80;101871.72;4909759;28;113665;-72
2021/04/01 00:20:13;;;;;;;55.75;29.60;;;;;;;16.04;41.66;101874.47;4913729;28;125499;-71
2021/04/01 00:22:41;;;;;;;49.20;29.70;;;;;;;16.02;41.81;101871.84;4906164;28;123519;-72
2021/04/01 00:25:11;;;;;;;54.30;30.42;;;;;;;16.02;42.00;101871.84;4925315;28;114470;-71
2021/04/01 00:27:37;;;;;;;53.35;30.20;;;;;;;16.00;42.02;101868.41;4879903;28;113485;-72
2021/04/01 00:30:07;;;;;;;48.75;28.65;;;;;;;16.00;41.75;101879.09;4907592;28;124168;-71
2021/04/01 00:32:34;;;;;;;52.60;30.58;;;;;;;15.99;42.45;101872.00;4905071;28;124854;-71
2021/04/01 00:35:01;;;;;;;51.28;31.48;;;;;;;15.98;42.09;101870.28;4911639;28;114895;-72
2021/04/01 00:37:27;;;;;;;51.45;30.85;;;;;;;15.95;42.17;101862.44;4921659;28;113352;-71
2021/04/01 00:39:54;;;;;;;55.90;31.00;;;;;;;15.97;42.16;101873.91;4897608;28;123371;-71
2021/04/01 00:42:21;;;;;;;55.13;30.15;;;;;;;15.99;42.34;101872.00;4912634;28;124711;-71
2021/04/01 00:44:48;;;;;;;52.33;30.73;;;;;;;15.98;42.39;101870.28;4912416;28;114265;-71
2021/04/01 00:47:15;;;;;;;52.92;29.05;;;;;;;15.95;42.46;101870.44;4912593;28;113277;-71
2021/04/01 00:49:41;;;;;;;54.72;30.05;;;;;;;15.95;42.88;101865.09;4924878;28;123903;-71
2021/04/01 00:52:09;;;;;;;53.42;29.70;;;;;;;15.93;43.11;101866.97;4895327;28;122985;-71
2021/04/01 00:54:37;;;;;;;54.85;29.52;;;;;;;15.94;42.90;101868.72;4894256;28;114234;-71
2021/04/01 00:57:04;;;;;;;51.80;30.02;;;;;;;15.94;42.77;101858.03;4908909;28;115780;-72
2021/04/01 00:59:31;;;;;;;51.88;29.23;;;;;;;15.94;42.89;101858.03;4878943;28;124566;-71
2021/04/01 01:02:07;;;;;;;53.22;29.98;;;;;;;15.94;42.85;101858.03;4911080;28;124788;-73
2021/04/01 01:04:34;;;;;;;51.80;29.70;;;;;;;15.96;42.95;101856.16;4909285;28;114961;-72
2021/04/01 01:07:00;;;;;;;52.47;29.63;;;;;;;15.96;42.75;101850.81;4894262;28;113970;-71
2021/04/01 01:09:27;;;;;;;53.97;31.55;;;;;;;15.96;42.88;101851.66;4891470;28;122513;-71
2021/04/01 01:11:54;;;;;;;47.13;29.13;;;;;;;15.97;43.12;101847.19;4911845;28;123782;-71
2021/04/01 01:14:21;;;;;;;53.25;29.70;;;;;;;15.98;43.02;101848.91;4910686;28;113630;-71
2021/04/01 01:16:48;;;;;;;53.25;30.38;;;;;;;15.99;42.80;101852.44;4894180;28;114394;-71
2021/04/01 01:19:16;;;;;;;49.47;29.17;;;;;;;15.99;42.91;101845.28;4893813;28;122971;-72
2021/04/01 01:21:46;;;;;;;50.53;29.38;;;;;;;15.99;42.99;101834.59;4875766;28;123153;-71
2021/04/01 01:24:14;;;;;;;52.80;30.85;;;;;;;16.00;43.08;101836.34;4907228;28;114849;-72
2021/04/01 01:26:41;;;;;;;53.80;30.23;;;;;;;16.00;43.23;101836.34;4894100;28;113024;-71
2021/04/01 01:29:09;;;;;;;58.58;32.38;;;;;;;16.01;43.34;101826.50;4911831;28;123590;-71
2021/04/01 01:31:46;;;;;;;58.00;33.15;;;;;;;16.00;43.50;101825.66;4891353;28;124317;-71
2021/04/01 01:34:13;;;;;;;63.90;34.30;;;;;;;15.98;43.49;101824.88;4904845;28;114254;-71
2021/04/01 01:36:40;;;;;;;57.97;33.63;;;;;;;15.98;43.25;101819.53;4894655;28;114175;-71
2021/04/01 01:39:06;;;;;;;60.38;33.97;;;;;;;15.95;43.54;101809.00;4912221;28;124425;-71
2021/04/01 01:41:33;;;;;;;61.28;34.58;;;;;;;15.95;43.51;101809.00;4894106;28;123288;-71
2021/04/01 01:44:01;;;;;;;59.72;32.50;;;;;;;15.94;43.31;101809.94;4911451;28;115205;-71
2021/04/01 01:46:28;;;;;;;58.38;33.65;;;;;;;15.97;43.47;101809.78;4913204;28;114706;-72
2021/04/01 01:48:59;;;;;;;56.75;33.85;;;;;;;15.99;43.65;101818.56;4904436;28;123957;-72
2021/04/01 01:51:27;;;;;;;62.88;33.90;;;;;;;16.01;43.44;101822.06;4919688;28;123176;-72
2021/04/01 01:53:54;;;;;;;64.50;34.67;;;;;;;16.03;43.56;101836.19;4897167;28;113287;-72
2021/04/01 01:56:22;;;;;;;60.03;35.28;;;;;;;16.02;43.71;101834.44;4900099;28;113506;-72
2021/04/01 01:58:53;;;;;;;66.95;36.60;;;;;;;16.04;43.77;101843.25;4917313;28;124653;-71
2021/04/01 02:01:21;;;;;;;60.45;34.03;;;;;;;16.02;43.78;101837.13;4898434;28;124460;-72
2021/04/01 02:03:48;;;;;;;59.97;35.13;;;;;;;16.02;43.75;101834.44;4931115;28;114489;-71
2021/04/01 02:06:21;;;;;;;65.20;35.67;;;;;;;16.01;44.01;101837.19;4912270;28;113077;-72
2021/04/01 02:08:51;;;;;;;62.10;35.78;;;;;;;16.01;43.75;101838.09;4915294;28;124016;-71
2021/04/01 02:11:18;;;;;;;68.43;37.28;;;;;;;16.00;43.71;101836.34;4920134;28;124391;-71
2021/04/01 02:13:44;;;;;;;66.40;37.03;;;;;;;16.02;43.79;101830.94;4917823;28;114070;-71
2021/04/01 02:16:12;;;;;;;64.72;37.67;;;;;;;16.02;43.71;101834.44;4917873;28;114148;-71
2021/04/01 02:18:39;;;;;;;66.97;37.17;;;;;;;16.03;43.67;101832.63;4917401;28;124044;-72
2021/04/01 02:21:08;;;;;;;68.10;36.78;;;;;;;16.04;43.36;101832.56;4918280;28;123606;-71
2021/04/01 02:23:36;;;;;;;68.95;37.35;;;;;;;16.07;43.52;101843.09;4917721;28;115030;-71
2021/04/01 02:26:04;;;;;;;62.85;36.72;;;;;;;16.09;43.40;101840.34;4914879;28;114189;-72
2021/04/01 02:28:34;;;;;;;64.32;36.55;;;;;;;16.10;43.50;101836.72;4900870;28;123870;-71
2021/04/01 02:31:04;;;;;;;67.28;37.58;;;;;;;16.10;43.41;101831.38;4900144;28;123132;-71
2021/04/01 02:33:33;;;;;;;62.72;35.83;;;;;;;16.11;43.39;101833.13;4909119;28;113887;-71
2021/04/01 02:36:00;;;;;;;67.72;37.15;;;;;;;16.10;43.57;101832.22;4901910;28;114261;-71
2021/04/01 02:38:27;;;;;;;61.60;35.20;;;;;;;16.08;43.31;101834.13;4910000;28;123654;-71
2021/04/01 02:40:56;;;;;;;66.53;36.03;;;;;;;16.07;43.61;101827.06;4928714;28;122178;-71
2021/04/01 02:43:29;;;;;;;58.80;35.20;;;;;;;16.05;43.60;101828.97;4918039;28;114644;-71
2021/04/01 02:45:57;;;;;;;58.30;34.22;;;;;;;16.03;43.78;101830.84;4899179;28;113616;-72
2021/04/01 02:48:23;;;;;;;61.40;34.50;;;;;;;15.99;44.02;101823.91;4917440;28;124826;-72
2021/04/01 02:50:50;;;;;;;63.20;35.70;;;;;;;15.98;43.81;101827.53;4918360;28;124290;-72
2021/04/01 02:53:17;;;;;;;59.53;35.92;;;;;;;15.96;43.85;101824.09;4916123;28;113540;-71
2021/04/01 02:55:44;;;;;;;61.72;34.53;;;;;;;15.93;43.78;101835.78;4917207;28;114029;-72
2021/04/01 02:58:11;;;;;;;59.47;34.78;;;;;;;15.91;43.85;101831.47;4916600;28;124578;-71
2021/04/01 03:00:37;;;;;;;64.00;36.90;;;;;;;15.88;44.01;101831.63;4913735;28;123878;-71
2021/04/01 03:03:13;;;;;;;65.38;36.45;;;;;;;15.86;43.98;101830.84;4913840;28;114914;-71
2021/04/01 03:05:40;;;;;;;67.18;38.28;;;;;;;15.83;43.99;101829.19;4897013;28;113310;-71
2021/04/01 03:08:06;;;;;;;63.08;35.28;;;;;;;15.80;43.92;101823.16;4909436;28;123096;-72
2021/04/01 03:10:33;;;;;;;65.03;36.03;;;;;;;15.76;44.07;101834.00;4896474;28;122940;-71
2021/04/01 03:13:00;;;;;;;65.65;36.53;;;;;;;15.73;44.10;101834.16;4897137;28;113363;-71
2021/04/01 03:15:26;;;;;;;65.85;36.47;;;;;;;15.69;44.06;101832.56;4911675;28;113644;-72
2021/04/01 03:17:53;;;;;;;60.47;34.80;;;;;;;15.66;44.19;101840.72;4913922;28;124867;-71
2021/04/01 03:20:20;;;;;;;60.63;33.83;;;;;;;15.58;44.13;101837.56;4913752;28;124682;-71
2021/04/01 03:22:47;;;;;;;60.38;34.78;;;;;;;15.51;44.58;101847.69;4896688;28;116044;-72
2021/04/01 03:25:14;;;;;;;61.22;34.17;;;;;;;15.41;44.25;101858.88;4890134;23;114897;-68
2021/04/01 03:27:40;;;;;;;60.88;33.72;;;;;;;15.29;44.38;101850.53;4910027;28;124287;-68
2021/04/01 03:30:13;;;;;;;61.05;33.63;;;;;;;15.21;44.78;101852.72;4896199;28;122938;-68
2021/04/01 03:32:41;;;;;;;62.30;33.78;;;;;;;15.13;44.79;101852.22;4922494;28;115010;-69
2021/04/01 03:35:11;;;;;;;60.20;33.42;;;;;;;15.06;44.97;101854.31;4895495;28;114227;-68
2021/04/01 03:37:38;;;;;;;66.30;36.22;;;;;;;15.02;45.09;101862.56;4892783;28;123131;-68
2021/04/01 03:40:07;;;;;;;61.10;34.92;;;;;;;14.94;45.10;101866.44;4905997;28;124831;-68
2021/04/01 03:42:36;;;;;;;58.72;32.88;;;;;;;14.85;45.27;101872.19;4894286;28;114705;-68
2021/04/01 03:45:05;;;;;;;56.92;33.13;;;;;;;14.74;45.26;101874.50;4915425;28;114482;-69
2021/04/01 03:47:32;;;;;;;58.35;33.70;;;;;;;14.65;45.51;101877.59;4885107;28;122967;-68
2021/04/01 03:49:58;;;;;;;66.72;36.40;;;;;;;14.58;45.58;101869.88;4900310;28;123748;-68
2021/04/01 03:52:25;;;;;;;61.20;33.85;;;;;;;14.53;45.73;101882.50;4885284;28;113478;-67
2021/04/01 03:54:56;;;;;;;59.80;33.97;;;;;;;14.49;45.77;101867.59;4910721;28;114638;-68
2021/04/01 03:57:23;;;;;;;68.63;35.35;;;;;;;14.44;45.90;101877.59;4913159;28;124061;-68
2021/04/01 04:00:05;;;;;;;71.13;35.88;;;;;;;14.40;46.09;101870.66;4895901;28;122332;-68
2021/04/01 04:05:12;;;;;;;67.53;37.00;;;;;;;14.36;46.30;101874.41;4908571;28;113660;-68
2021/04/01 04:08:07;;;;;;;67.05;36.97;;;;;;;14.35;45.92;101878.00;4910406;28;123995;-67
2021/04/01 04:15:33;;;;;;;68.60;37.10;;;;;;;14.31;45.88;101876.41;4893147;28;115543;-68
2021/04/01 04:17:59;;;;;;;69.00;36.42;;;;;;;14.30;46.12;101893.34;4893999;28;125224;-68
2021/04/01 04:20:26;;;;;;;69.10;37.80;;;;;;;14.26;46.15;101878.38;4890409;28;123636;-67
2021/04/01 04:22:53;;;;;;;68.70;37.60;;;;;;;14.24;46.25;101881.16;4896293;28;114516;-66
2021/04/01 04:25:20;;;;;;;74.90;39.17;;;;;;;14.24;46.20;101888.25;4881542;28;113999;-67
2021/04/01 04:30:36;;;;;;;70.00;36.95;;;;;;;14.21;45.94;101892.78;4853977;28;123814;-67
2021/04/01 04:33:03;;;;;;;72.32;37.88;;;;;;;14.20;46.11;101885.75;4913764;28;114275;-68
2021/04/01 04:35:29;;;;;;;68.72;37.30;;;;;;;14.17;46.08;101885.88;4912172;28;114159;-70
2021/04/01 04:37:56;;;;;;;71.90;37.88;;;;;;;14.16;46.09;101889.44;4911904;28;124200;-68
2021/04/01 04:40:23;;;;;;;68.53;37.05;;;;;;;14.15;46.06;101887.72;4913085;28;123971;-68
2021/04/01 04:42:49;;;;;;;76.03;38.55;;;;;;;14.13;46.11;101889.59;4866107;28;113511;-67
2021/04/01 04:45:16;;;;;;;70.38;36.33;;;;;;;14.11;46.08;101879.91;4912171;28;114076;-68
2021/04/01 04:47:43;;;;;;;71.57;38.50;;;;;;;14.09;46.46;101881.78;4881306;28;123886;-68
2021/04/01 04:50:10;;;;;;;67.90;36.35;;;;;;;14.07;46.42;101879.22;4899074;28;123933;-67
2021/04/01 04:52:37;;;;;;;70.10;36.47;;;;;;;14.04;46.52;101874.00;4911467;28;114057;-68
2021/04/01 04:55:06;;;;;;;73.57;38.20;;;;;;;14.05;46.50;101890.84;4887058;28;112904;-68
2021/04/01 04:57:38;;;;;;;73.68;37.83;;;;;;;14.02;46.47;101886.53;4873300;28;123980;-68
2021/04/01 05:05:29;;;;;;;69.38;37.25;;;;;;;13.97;46.33;101893.84;4897279;28;114801;-69
2021/04/01 05:07:56;;;;;;;71.93;37.97;;;;;;;13.95;46.37;101898.38;4889063;28;123145;-69
2021/04/01 05:10:23;;;;;;;69.90;36.85;;;;;;;13.94;46.26;101901.97;4891122;28;125090;-68
2021/04/01 05:13:03;;;;;;;70.07;37.15;;;;;;;13.91;46.74;101910.09;4903211;28;114748;-68
2021/04/01 05:15:30;;;;;;;67.10;37.22;;;;;;;13.89;46.58;101895.97;4874742;28;114264;-68
2021/04/01 05:18:13;;;;;;;71.70;36.58;;;;;;;13.87;46.14;101912.00;4900854;28;124312;-67
2021/04/01 05:20:41;;;;;;;70.18;36.47;;;;;;;13.85;46.53;101905.03;4895039;28;123907;-68
2021/04/01 05:25:52;;;;;;;69.72;36.95;;;;;;;13.79;46.59;101912.34;4911101;28;113950;-67
2021/04/01 05:31:07;;;;;;;76.05;37.08;;;;;;;13.77;46.71;101908.88;4911192;28;123900;-67
2021/04/01 05:33:35;;;;;;;68.10;36.55;;;;;;;13.76;46.80;101900.94;4895627;28;113888;-68
2021/04/01 05:36:07;;;;;;;70.43;36.22;;;;;;;13.73;46.88;101901.94;4893737;28;113819;-67
2021/04/01 05:38:34;;;;;;;71.28;36.83;;;;;;;13.72;46.78;101905.53;4901198;28;124023;-67
2021/04/01 05:41:02;;;;;;;71.55;35.97;;;;;;;13.71;47.17;101909.13;4892376;28;123934;-67
2021/04/01 05:43:33;;;;;;;64.85;35.90;;;;;;;13.71;47.16;101914.47;4893001;28;114418;-68
2021/04/01 05:46:22;;;;;;;65.47;36.80;;;;;;;13.71;47.23;101914.47;4889642;28;113832;-67
2021/04/01 05:57:02;;;;;;;73.50;37.75;;;;;;;13.75;47.44;101905.41;4877673;28;113910;-67
2021/04/01 06:04:37;;;;;;;67.88;34.92;;;;;;;13.81;47.32;101918.47;4892629;28;114259;-68
2021/04/01 06:07:12;;;;;;;71.95;36.97;;;;;;;13.86;47.62;101917.41;4890726;28;114193;-68
2021/04/01 06:09:45;;;;;;;68.03;36.95;;;;;;;13.90;47.38;101924.31;4885324;28;123157;-68
2021/04/01 06:12:12;;;;;;;70.95;36.47;;;;;;;13.94;47.67;101926.81;4909304;28;124436;-68
2021/04/01 06:15:07;;;;;;;67.18;36.45;;;;;;;14.00;47.72;101936.34;4894541;28;114554;-68
2021/04/01 06:17:34;;;;;;;66.68;37.13;;;;;;;14.06;47.76;101936.06;4891310;28;114649;-68
2021/04/01 06:20:05;;;;;;;72.95;38.30;;;;;;;14.11;48.04;101938.53;4900270;28;124394;-68
2021/04/01 06:22:32;;;;;;;75.10;38.10;;;;;;;14.18;47.82;101935.56;4877731;28;124315;-68
2021/04/01 06:24:59;;;;;;;75.70;38.08;;;;;;;14.26;48.12;101931.69;4893767;28;113920;-68
2021/04/01 06:27:53;;;;;;;73.38;37.70;;;;;;;14.35;48.12;101925.97;4898254;28;114659;-68
2021/04/01 06:30:29;;;;;;;63.38;36.13;;;;;;;14.47;48.33;101929.91;4885201;28;123921;-68
2021/04/01 06:33:00;;;;;;;63.03;34.53;;;;;;;14.58;47.98;101939.19;4873646;28;124834;-69
2021/04/01 06:38:35;;;;;;;58.50;33.13;;;;;;;14.88;47.72;101935.19;4897547;28;114371;-69
2021/04/01 06:41:12;;;;;;;61.40;32.95;;;;;;;15.04;47.47;101951.38;4881976;28;125352;-68
2021/04/01 06:43:51;;;;;;;64.60;33.90;;;;;;;15.17;47.98;101948.06;4899161;28;123840;-69
2021/04/01 06:46:22;;;;;;;62.92;33.60;;;;;;;15.33;47.99;101960.69;4881577;28;113766;-69
2021/04/01 06:54:34;;;;;;;62.25;34.58;;;;;;;15.80;47.68;101962.06;4895339;28;124062;-67
2021/04/01 07:00:00;;;;;;;60.30;34.40;;;;;;;16.08;47.81;101973.09;4899311;28;114280;-68
2021/04/01 07:02:40;;;;;;;64.43;33.58;;;;;;;16.25;47.52;101974.91;4897566;28;124352;-68
2021/04/01 07:05:36;;;;;;;65.60;34.70;;;;;;;16.42;47.53;101971.38;4865912;28;124143;-68
2021/04/01 07:08:08;;;;;;;67.43;34.10;;;;;;;16.60;47.06;101974.91;4891804;28;114443;-69
2021/04/01 07:13:16;;;;;;;56.95;32.55;;;;;;;16.87;46.97;101967.25;4897843;28;123107;-69
2021/04/01 07:16:33;;;;;;;58.78;30.88;;;;;;;17.04;46.68;101976.19;4884954;28;124098;-68
2021/04/01 07:46:31;;;;;;;69.00;35.03;;;;;;;18.14;45.25;101981.66;4893934;28;125206;-68
2021/04/01 07:49:03;;;;;;;74.25;36.53;;;;;;;18.19;45.22;101979.56;4896304;28;122581;-68
2021/04/01 07:51:58;;;;;;;69.60;34.90;;;;;;;18.23;45.19;101992.72;4866464;28;113524;-68
2021/04/01 07:54:39;;;;;;;76.80;37.45;;;;;;;18.31;45.08;101984.22;4911317;28;114276;-68
2021/04/01 07:57:25;;;;;;;70.55;35.88;;;;;;;18.39;44.78;101992.66;4895877;28;123243;-68
2021/04/01 07:59:59;;;;;;;72.60;36.50;;;;;;;18.43;45.15;101999.56;4895152;28;123874;-68
2021/04/01 08:02:49;;;;;;;76.20;36.57;;;;;;;18.48;44.62;102002.84;4893838;28;114309;-68
2021/04/01 08:05:26;;;;;;;74.32;37.92;;;;;;;18.54;44.46;102000.75;4894741;28;113514;-68
2021/04/01 08:08:28;;;;;;;73.82;36.92;;;;;;;18.60;44.55;102000.38;4895293;28;123037;-69
2021/04/01 08:10:49;;;;;;;82.00;37.47;;;;;;;18.67;44.64;102001.75;4888668;28;123707;-69
2021/04/01 08:13:29;;;;;;;74.53;37.75;;;;;;;18.68;44.34;101998.09;4906005;28;115042;-68
2021/04/01 08:16:04;;;;;;;82.03;39.00;;;;;;;18.72;44.12;102004.13;4912643;28;114428;-68
2021/04/01 08:18:39;;;;;;;81.43;39.00;;;;;;;18.75;44.25;102007.50;4893303;28;123583;-69
2021/04/01 08:21:09;;;;;;;80.10;40.95;;;;;;;18.81;44.42;102008.97;4899528;28;124343;-68
2021/04/01 08:24:07;;;;;;;81.88;40.90;;;;;;;18.84;44.26;102015.03;4893725;28;113611;-68
2021/04/01 08:36:14;;;;;;;;;;;;;;;19.10;43.76;102012.56;4852346;28;114280;-68
2021/04/01 08:39:00;;;;;;;94.78;44.22;;;;;;;19.20;44.16;102019.06;4911652;28;115280;-67
2021/04/01 08:42:05;;;;;;;88.30;44.10;;;;;;;19.25;43.67;102018.78;4879616;28;123942;-67
2021/04/01 08:45:09;;;;;;;89.80;44.58;;;;;;;19.33;43.59;102015.63;4897514;28;123834;-68
2021/04/01 08:48:13;;;;;;;93.47;44.33;;;;;;;19.41;43.63;102005.25;4882001;28;113268;-68
2021/04/01 08:51:13;;;;;;;88.13;43.75;;;;;;;19.49;43.74;102016.34;4884546;28;113898;-68
2021/04/01 08:54:09;;;;;;;87.03;44.53;;;;;;;19.56;43.22;102012.31;4900685;28;124542;-69
2021/04/01 08:56:59;;;;;;;90.60;45.42;;;;;;;19.60;43.40;102019.22;4894990;28;124573;-69
2021/04/01 08:59:49;;;;;;;98.55;47.30;;;;;;;19.62;42.98;102022.66;4886748;28;115285;-69
2021/04/01 09:02:21;;;;;;;98.28;48.40;;;;;;;19.65;42.77;102011.72;4900086;28;114107;-68
2021/04/01 09:04:51;;;;;;;99.63;49.00;;;;;;;19.71;43.09;102012.28;4881825;28;123158;-69
2021/04/01 09:07:28;;;;;;;91.70;47.03;;;;;;;19.77;43.04;102019.97;4876631;28;125459;-69
2021/04/01 09:10:56;;;;;;;93.85;46.88;;;;;;;19.85;42.75;102023.03;4901937;28;114570;-69
2021/04/01 09:15:38;;;;;;;88.47;46.70;;;;;;;19.98;42.23;102023.94;4910603;28;125574;-69
2021/04/01 09:18:22;;;;;;;92.07;47.67;;;;;;;20.05;42.20;102026.25;4886437;28;124051;-68
2021/04/01 09:20:56;;;;;;;89.47;46.65;;;;;;;20.12;42.01;102024.88;4907018;28;114107;-69
2021/04/01 09:23:47;;;;;;;94.97;49.38;;;;;;;20.16;42.37;102021.00;4901884;28;97042;-68
2021/04/01 09:26:14;;;;;;;96.00;48.00;;;;;;;20.20;42.05;102022.53;4914750;23;124740;-72
2021/04/01 09:28:43;;;;;;;97.65;50.67;;;;;;;20.26;42.09;102024.78;4876019;28;122748;-72
2021/04/01 09:31:12;;;;;;;96.03;50.05;;;;;;;20.32;42.30;102032.44;4875087;28;115455;-72
2021/04/01 09:33:40;;;;;;;100.13;50.95;;;;;;;20.36;42.02;102034.00;4899607;28;115288;-72
2021/04/01 09:36:08;;;;;;;102.68;51.80;;;;;;;20.39;41.87;102031.06;4891531;28;124035;-72
2021/04/01 09:38:37;;;;;;;106.20;54.40;;;;;;;20.43;42.16;102029.88;4892799;28;124281;-72
2021/04/01 09:41:04;;;;;;;94.03;50.97;;;;;;;20.50;42.00;102034.88;4879315;28;113990;-73
2021/04/01 09:43:31;;;;;;;96.63;49.92;;;;;;;20.57;41.32;102046.97;4876305;28;113901;-72
2021/04/01 09:46:12;;;;;;;90.88;49.50;;;;;;;20.62;41.36;102039.44;4904962;28;123200;-72
2021/04/01 09:48:49;;;;;;;96.85;51.55;;;;;;;20.67;41.44;102037.31;4875410;28;123560;-72
2021/04/01 09:51:21;;;;;;;98.47;50.88;;;;;;;20.68;40.91;102038.16;4892301;28;113963;-72
2021/04/01 09:53:54;;;;;;;99.05;50.22;;;;;;;20.74;40.55;102040.44;4890666;28;113927;-72
2021/04/01 09:56:24;;;;;;;100.80;53.33;;;;;;;20.80;41.25;102040.00;4873197;28;124149;-72
2021/04/01 09:58:53;;;;;;;103.00;52.85;;;;;;;20.84;41.28;102032.59;4870153;28;123997;-72
2021/04/01 10:04:17;;;;;;;94.47;52.13;;;;;;;20.91;41.32;102037.44;4883964;28;114054;-72
2021/04/01 10:06:49;;;;;;;98.85;51.30;;;;;;;20.96;40.44;102038.00;4887268;28;123671;-72
2021/04/01 10:09:20;;;;;;;88.80;50.88;;;;;;;21.02;40.30;102042.09;4881356;28;124498;-72
2021/04/01 10:11:53;;;;;;;97.78;52.75;;;;;;;21.07;40.47;102039.06;4895044;28;114367;-73
2021/04/01 10:14:21;;;;;;;96.63;52.72;;;;;;;21.09;40.76;102037.97;4893891;28;114162;-72
2021/04/01 10:17:05;;;;;;;94.93;52.13;;;;;;;21.12;40.54;102043.16;4885248;28;124017;-72
2021/04/01 10:19:34;;;;;;;93.43;50.47;;;;;;;21.14;40.76;102046.59;4876091;28;123794;-73
2021/04/01 10:22:01;;;;;;;95.65;51.88;;;;;;;21.18;40.55;102042.69;4889084;28;115382;-73
2021/04/01 10:24:32;;;;;;;97.47;52.90;;;;;;;21.19;40.38;102044.44;4877368;28;114950;-72
2021/04/01 10:30:01;;;;;;;95.25;54.03;;;;;;;21.33;40.57;102050.69;4877418;28;123910;-73
2021/04/01 10:32:40;;;;;;;98.75;53.30;;;;;;;21.34;40.53;102047.88;4878062;28;114127;-72
2021/04/01 10:35:11;;;;;;;105.50;54.97;;;;;;;21.37;40.63;102054.88;4882813;28;114687;-73
2021/04/01 10:37:48;;;;;;;97.13;54.33;;;;;;;21.39;40.30;102055.63;4884538;28;123921;-72
2021/04/01 10:40:17;;;;;;;95.60;51.83;;;;;;;21.43;39.72;102051.72;4892069;28;124435;-72
2021/04/01 10:42:49;;;;;;;96.70;56.45;;;;;;;21.45;39.94;102057.03;4894573;28;114691;-73
2021/04/01 10:45:22;;;;;;;97.50;56.60;;;;;;;21.48;40.20;102059.53;4875143;28;113627;-72
2021/04/01 10:48:15;;;;;;;101.70;57.58;;;;;;;21.51;40.51;102060.19;4875972;28;123928;-72
2021/04/01 10:50:43;;;;;;;97.30;56.58;;;;;;;21.58;40.86;102061.44;4892029;28;125098;-73
2021/04/01 10:53:40;;;;;;;98.15;56.65;;;;;;;21.65;40.46;102061.00;4876753;28;113584;-73
2021/04/01 10:56:09;;;;;;;95.97;56.35;;;;;;;21.70;39.84;102064.22;4882842;28;114566;-73
2021/04/01 10:58:55;;;;;;;96.70;55.83;;;;;;;21.71;40.09;102072.19;4876861;28;124731;-73
2021/04/01 11:01:33;;;;;;;97.50;55.17;;;;;;;21.74;39.44;102060.34;4887834;28;124208;-73
2021/04/01 11:04:02;;;;;;;98.10;57.97;;;;;;;21.79;39.68;102071.63;4882311;28;113832;-71
2021/04/01 11:06:33;;;;;;;90.50;54.60;;;;;;;21.83;39.51;102065.06;4890028;28;113537;-70
2021/04/01 11:09:00;;;;;;;94.60;54.83;;;;;;;21.84;38.79;102065.91;4881148;28;124626;-70
2021/04/01 11:14:15;;;;;;;93.05;55.65;;;;;;;21.88;39.50;102068.25;4891550;28;114660;-71
2021/04/01 11:16:42;;;;;;;94.18;53.20;;;;;;;21.96;39.02;102076.66;4877189;28;115325;-70
2021/04/01 11:19:12;;;;;;;91.22;52.72;;;;;;;22.02;37.95;102074.47;4889642;28;124666;-70
2021/04/01 11:21:39;;;;;;;84.68;51.55;;;;;;;22.05;37.81;102068.84;4883682;28;124167;-70
2021/04/01 11:24:07;;;;;;;90.43;51.15;;;;;;;22.07;37.55;102077.69;4893432;28;113788;-70
2021/04/01 11:26:34;;;;;;;88.85;52.13;;;;;;;22.11;37.09;102076.50;4876949;28;114666;-70
2021/04/01 11:29:11;;;;;;;91.18;53.20;;;;;;;22.10;37.17;102082.88;4862964;28;123989;-70
2021/04/01 11:31:37;;;;;;;86.43;52.75;;;;;;;22.11;37.47;102074.69;4882343;28;124598;-70
2021/04/01 11:34:04;;;;;;;87.32;53.58;;;;;;;22.15;37.43;102080.69;4894527;28;115106;-70
2021/04/01 11:36:38;;;;;;;87.95;54.85;;;;;;;22.21;37.77;102085.63;4891661;28;113792;-70
2021/04/01 11:39:24;;;;;;;86.75;51.55;;;;;;;22.28;37.39;102081.53;4889733;28;124428;-70
2021/04/01 11:41:52;;;;;;;77.05;49.60;;;;;;;22.31;36.85;102089.38;4888656;28;123640;-70
2021/04/01 11:44:20;;;;;;;81.97;48.97;;;;;;;22.30;37.22;102093.09;4889582;28;113354;-70
2021/04/01 11:46:47;;;;;;;78.60;48.05;;;;;;;22.31;36.74;102091.25;4875845;28;113922;-70
2021/04/01 11:49:13;;;;;;;74.95;47.05;;;;;;;22.28;36.96;102092.34;4876712;28;124753;-70
2021/04/01 11:51:40;;;;;;;65.45;42.08;;;;;;;22.28;36.75;102097.72;4888860;28;124293;-70
2021/04/01 11:54:08;;;;;;;61.08;39.70;;;;;;;22.27;35.94;102101.41;4891568;28;114385;-73
2021/04/01 11:56:42;;;;;;;63.08;37.67;;;;;;;22.19;36.05;102095.69;4874354;28;114239;-71
2021/04/01 11:59:21;;;;;;;55.95;33.55;;;;;;;22.12;36.07;102097.13;4890163;28;124418;-71
2021/04/01 12:01:56;;;;;;;43.47;26.80;;;;;;;22.07;35.42;102099.28;4889189;28;123893;-71
2021/04/01 12:04:28;;;;;;;33.47;21.35;;;;;;;21.97;36.14;102105.34;4870805;28;115016;-71
2021/04/01 12:06:56;;;;;;;39.20;20.08;;;;;;;21.94;36.11;102100.19;4891483;28;114969;-71
2021/04/01 12:09:23;;;;;;;32.45;17.92;;;;;;;21.89;35.76;102107.75;4860492;28;124060;-71
2021/04/01 12:11:50;;;;;;;32.90;18.90;;;;;;;21.83;35.64;102113.63;4873694;28;123905;-71
2021/04/01 12:14:18;;;;;;;29.08;16.23;;;;;;;21.75;35.63;102105.19;4876005;28;114563;-71
2021/04/01 12:16:45;;;;;;;23.85;14.25;;;;;;;21.71;35.63;102101.00;4892087;28;114717;-70
2021/04/01 12:19:12;;;;;;;23.70;13.90;;;;;;;21.68;35.71;102101.22;4875758;28;123284;-71
2021/04/01 12:21:41;;;;;;;25.13;13.98;;;;;;;21.68;35.53;102109.31;4890712;28;123384;-71
2021/04/01 12:24:09;;;;;;;22.52;12.95;;;;;;;21.65;35.66;102104.16;4875889;28;114411;-71
2021/04/01 12:26:50;;;;;;;16.33;9.60;;;;;;;21.62;35.31;102117.84;4891071;28;114627;-70
2021/04/01 12:29:17;;;;;;;19.83;10.07;;;;;;;21.56;35.26;102106.50;4893493;28;124860;-70
2021/04/01 12:31:56;;;;;;;17.58;9.27;;;;;;;21.49;35.66;102102.56;4890824;28;124143;-70
2021/04/01 12:34:27;;;;;;;16.38;8.10;;;;;;;21.46;35.35;102110.84;4884986;28;113814;-71
2021/04/01 12:36:54;;;;;;;13.57;8.60;;;;;;;21.42;35.82;102114.72;4881337;28;114518;-70
2021/04/01 12:39:32;;;;;;;14.93;7.95;;;;;;;21.41;35.92;102107.56;4875754;28;124429;-70
2021/04/01 12:41:59;;;;;;;14.48;7.88;;;;;;;21.43;35.88;102111.03;4887116;28;122101;-70
2021/04/01 12:44:41;;;;;;;13.85;7.35;;;;;;;21.47;35.92;102109.88;4889574;28;114831;-70
2021/04/01 12:47:09;;;;;;;14.85;7.50;;;;;;;21.54;36.82;102113.00;4884802;28;114417;-70
2021/04/01 12:49:36;;;;;;;13.80;7.50;;;;;;;21.63;36.79;102111.50;4883887;28;124082;-71
2021/04/01 12:52:06;;;;;;;12.65;6.80;;;;;;;21.72;36.43;102111.69;4876062;28;124539;-70
2021/04/01 12:54:38;;;;;;;14.43;7.00;;;;;;;21.80;36.36;102108.44;4877698;28;115396;-69
2021/04/01 12:57:12;;;;;;;11.10;6.03;;;;;;;21.85;36.24;102106.25;4875325;28;115128;-68
2021/04/01 12:59:42;;;;;;;9.20;5.50;;;;;;;21.89;36.09;102115.84;4882581;28;123571;-69